Terminal Aerodrome Forecast
Issued by NWS

Home | Current Version | Previous Version | Text Only | Print | Product List | Glossary On
Versions: 1 2 3 4 5 6 7 8 9 10 11 12 13 14
000
FTUS42 TJSJ 272339
TAFNCM
TAF
TNCM 272339Z 2800/2824 VRB05KT P6SM FEW018 SCT035
     FM280330 09004KT P6SM VCSH SCT018
     FM281350 10012KT P6SM SCT022=

USA.gov is the U.S. government's official web portal to all federal, state and local government web resources and services.